Time;durP1;ratioP1;P1;durP2;ratioP2;P2;SDS_P1;SDS_P2;PMS_P1;PMS_P2;Temp;Humidity;BMP_temperature;BMP_pressure;BME280_temperature;BME280_humidity;BME280_pressure;Samples;Min_cycle;Max_cycle;Signal;HPM_P1;HPM_P2
2021/04/18 00:00:42;;;;;;;;;;;;;;;6.20;82.74;101307.00;1742300;80;20348;-74
2021/04/18 00:03:08;;;;;;;;;;;;;;;6.22;82.91;101307.47;1740765;80;20283;-73
2021/04/18 00:05:34;;;;;;;;;;;;;;;6.25;82.92;101302.34;1756733;80;20279;-73
2021/04/18 00:08:03;;;;;;;;;;;;;;;6.25;82.87;101304.91;1745572;81;20403;-73
2021/04/18 00:10:34;;;;;;;;;;;;;;;6.25;82.79;101303.63;1734026;81;314329;-73
2021/04/18 00:13:05;;;;;;;;;;;;;;;6.22;82.87;101298.90;1751603;81;20588;-73
2021/04/18 00:15:32;;;;;;;;;;;;;;;6.24;82.91;101289.48;1748076;81;20826;-73
2021/04/18 00:17:59;;;;;;;;;;;;;;;6.23;82.93;101289.93;1740424;80;20299;-73
2021/04/18 00:20:25;;;;;;;;;;;;;;;6.22;82.85;101292.48;1733866;80;20298;-73
2021/04/18 00:22:53;;;;;;;;;;;;;;;6.22;82.97;101290.77;1741693;81;20275;-73
2021/04/18 00:25:20;;;;;;;;;;;;;;;6.20;82.86;101297.59;1754003;80;20774;-73
2021/04/18 00:27:46;;;;;;;;;;;;;;;6.19;82.91;101300.14;1744850;81;20275;-73
2021/04/18 00:30:15;;;;;;;;;;;;;;;6.19;82.96;101297.58;1731675;81;20271;-73
2021/04/18 00:32:41;;;;;;;;;;;;;;;6.20;83.02;101293.74;1744476;81;20169;-73
2021/04/18 00:35:09;;;;;;;;;;;;;;;6.20;83.03;101289.89;1744377;80;20248;-74
2021/04/18 00:37:36;;;;;;;;;;;;;;;6.21;82.99;101294.61;1735996;81;20263;-74
2021/04/18 00:40:05;;;;;;;;;;;;;;;6.19;83.02;101287.30;1748146;81;20260;-74
2021/04/18 00:42:33;;;;;;;;;;;;;;;6.19;83.11;101280.89;1745318;80;20272;-74
2021/04/18 00:44:59;;;;;;;;;;;;;;;6.18;82.98;101285.16;1750131;81;20165;-74
2021/04/18 00:47:26;;;;;;;;;;;;;;;6.16;82.95;101285.56;1755609;81;20131;-74
2021/04/18 00:49:52;;;;;;;;;;;;;;;6.17;83.09;101280.87;1740442;80;20248;-74
2021/04/18 00:52:18;;;;;;;;;;;;;;;6.18;83.12;101272.74;1755029;81;20252;-73
2021/04/18 00:54:44;;;;;;;;;;;;;;;6.18;83.05;101267.61;1751432;81;20224;-73
2021/04/18 00:57:10;;;;;;;;;;;;;;;6.14;83.01;101265.42;1748652;81;20189;-73
2021/04/18 00:59:36;;;;;;;;;;;;;;;6.12;83.08;101259.41;1745395;81;20847;-73
2021/04/18 01:02:03;;;;;;;;;;;;;;;6.10;83.05;101257.23;1751725;81;20256;-73
2021/04/18 01:04:33;;;;;;;;;;;;;;;6.07;82.99;101261.47;1741663;81;20271;-73
2021/04/18 01:06:59;;;;;;;;;;;;;;;6.04;83.02;101261.43;1741420;81;20252;-73
2021/04/18 01:09:25;;;;;;;;;;;;;;;6.02;83.06;101259.27;1733857;80;20216;-73
2021/04/18 01:11:53;;;;;;;;;;;;;;;6.02;83.14;101266.97;1753521;81;20276;-73
2021/04/18 01:14:19;;;;;;;;;;;;;;;6.02;83.19;101269.53;1743105;81;20807;-73
2021/04/18 01:16:45;;;;;;;;;;;;;;;6.03;83.25;101263.56;1741430;81;20260;-73
2021/04/18 01:19:12;;;;;;;;;;;;;;;6.04;83.17;101265.28;1737570;80;20291;-73
2021/04/18 01:21:38;;;;;;;;;;;;;;;6.03;83.23;101263.56;1738915;81;20265;-73
2021/04/18 01:24:05;;;;;;;;;;;;;;;6.03;83.21;101260.98;1755451;80;20212;-73
2021/04/18 01:26:36;;;;;;;;;;;;;;;6.02;83.19;101260.55;1743827;80;20264;-73
2021/04/18 01:29:04;;;;;;;;;;;;;;;6.02;83.26;101263.98;1756702;81;20283;-73
2021/04/18 01:31:31;;;;;;;;;;;;;;;6.01;83.17;101278.08;1746040;80;20259;-73
2021/04/18 01:33:57;;;;;;;;;;;;;;;6.01;83.35;101271.66;1753599;81;20279;-73
2021/04/18 01:36:23;;;;;;;;;;;;;;;6.06;83.51;101266.16;1737828;81;20318;-73
2021/04/18 01:38:50;;;;;;;;;;;;;;;6.13;83.58;101262.41;1740314;81;20397;-73
2021/04/18 01:41:17;;;;;;;;;;;;;;;6.20;83.62;101260.36;1753685;80;20286;-73
2021/04/18 01:43:45;;;;;;;;;;;;;;;6.25;83.61;101253.55;1755709;80;20291;-73
2021/04/18 01:46:12;;;;;;;;;;;;;;;6.30;83.59;101253.17;1753910;80;20319;-73
2021/04/18 01:48:38;;;;;;;;;;;;;;;6.36;83.56;101252.38;1752810;81;20312;-73
2021/04/18 01:51:11;;;;;;;;;;;;;;;6.42;83.58;101254.16;1757196;80;20306;-73
2021/04/18 01:53:37;;;;;;;;;;;;;;;6.46;83.57;101254.64;1737042;81;20308;-73
2021/04/18 01:56:04;;;;;;;;;;;;;;;6.50;83.57;101258.54;1746015;81;20244;-73
2021/04/18 01:58:32;;;;;;;;;;;;;;;6.53;83.55;101253.44;1749262;81;20310;-73
2021/04/18 02:00:58;;;;;;;;;;;;;;;6.57;83.58;101255.62;1753950;81;20292;-73
2021/04/18 02:03:24;;;;;;;;;;;;;;;6.60;83.61;101246.66;1753931;80;20387;-73
2021/04/18 02:05:51;;;;;;;;;;;;;;;6.64;83.62;101246.70;1743625;80;20301;-73
2021/04/18 02:08:17;;;;;;;;;;;;;;;6.67;83.54;101251.02;1748708;80;20251;-73
2021/04/18 02:10:42;;;;;;;;;;;;;;;6.69;83.61;101244.18;1754126;81;20203;-73
2021/04/18 02:13:15;;;;;;;;;;;;;;;6.70;83.55;101247.19;1749207;80;20283;-73
2021/04/18 02:15:41;;;;;;;;;;;;;;;6.71;83.55;101253.19;1752749;81;20287;-73
2021/04/18 02:18:07;;;;;;;;;;;;;;;6.72;83.55;101249.77;1755793;81;20287;-73
2021/04/18 02:20:33;;;;;;;;;;;;;;;6.72;83.57;101253.20;1749860;80;20312;-73
2021/04/18 02:22:59;;;;;;;;;;;;;;;6.72;83.54;101254.91;1745390;81;20306;-73
2021/04/18 02:25:26;;;;;;;;;;;;;;;6.70;83.53;101248.89;1743064;80;20165;-73
2021/04/18 02:27:52;;;;;;;;;;;;;;;6.72;83.68;101254.49;1742167;81;20275;-73
2021/04/18 02:30:19;;;;;;;;;;;;;;;6.74;83.69;101246.38;1746324;80;613541;-73
2021/04/18 02:32:45;;;;;;;;;;;;;;;6.75;83.63;101245.95;1754898;80;20272;-73
2021/04/18 02:35:16;;;;;;;;;;;;;;;6.74;83.63;101241.66;1738304;81;20274;-74
2021/04/18 02:37:42;;;;;;;;;;;;;;;6.74;83.67;101241.66;1735732;80;20248;-73
2021/04/18 02:40:08;;;;;;;;;;;;;;;6.72;83.63;101236.92;1746462;81;20248;-73
2021/04/18 02:42:35;;;;;;;;;;;;;;;6.73;83.75;101235.66;1736790;80;20262;-73
2021/04/18 02:45:02;;;;;;;;;;;;;;;6.74;83.82;101233.52;1755948;81;20264;-73
2021/04/18 02:47:29;;;;;;;;;;;;;;;6.77;83.86;101230.95;1737488;81;20181;-73
2021/04/18 02:49:55;;;;;;;;;;;;;;;6.82;83.92;101232.28;1742850;81;20243;-74
2021/04/18 02:52:21;;;;;;;;;;;;;;;6.86;83.96;101225.89;1739358;81;20242;-73
2021/04/18 02:54:47;;;;;;;;;;;;;;;6.90;83.98;101233.20;1736798;81;20272;-73
2021/04/18 02:57:13;;;;;;;;;;;;;;;6.93;83.89;101236.67;1743740;80;20257;-73
2021/04/18 02:59:40;;;;;;;;;;;;;;;6.94;83.90;101227.25;1751376;81;20173;-74
2021/04/18 03:02:06;;;;;;;;;;;;;;;6.97;83.93;101222.99;1757481;80;20260;-74
2021/04/18 03:04:32;;;;;;;;;;;;;;;7.01;83.97;101226.45;1753689;80;20258;-73
2021/04/18 03:06:58;;;;;;;;;;;;;;;7.05;83.94;101217.92;1739470;80;20200;-73
2021/04/18 03:09:24;;;;;;;;;;;;;;;7.08;83.95;101218.36;1741913;80;20252;-73
2021/04/18 03:11:50;;;;;;;;;;;;;;;7.08;83.95;101215.80;1756204;80;20248;-73
2021/04/18 03:14:16;;;;;;;;;;;;;;;7.11;83.99;101222.25;1741266;80;20294;-73
2021/04/18 03:16:42;;;;;;;;;;;;;;;7.12;83.98;101226.12;1742315;80;20264;-73
2021/04/18 03:19:09;;;;;;;;;;;;;;;7.14;83.95;101221.84;1741417;81;20264;-73
2021/04/18 03:21:35;;;;;;;;;;;;;;;7.15;83.96;101216.28;1734247;81;20278;-73
2021/04/18 03:24:08;;;;;;;;;;;;;;;7.16;84.02;101221.44;1748862;81;20265;-73
2021/04/18 03:26:34;;;;;;;;;;;;;;;7.16;83.96;101215.43;1756454;81;20272;-73
2021/04/18 03:29:00;;;;;;;;;;;;;;;7.18;83.98;101217.59;1757921;80;20257;-73
2021/04/18 03:31:26;;;;;;;;;;;;;;;7.18;83.97;101216.30;1751054;81;20241;-73
2021/04/18 03:33:52;;;;;;;;;;;;;;;7.16;83.91;101212.86;1739331;80;20274;-74
2021/04/18 03:36:18;;;;;;;;;;;;;;;7.14;83.94;101211.98;1746934;81;20184;-73
2021/04/18 03:38:46;;;;;;;;;;;;;;;7.14;83.94;101216.70;1742289;80;20268;-73
2021/04/18 03:41:12;;;;;;;;;;;;;;;7.12;83.98;101218.41;1749955;81;20743;-73
2021/04/18 03:43:38;;;;;;;;;;;;;;;7.13;83.98;101214.13;1747360;80;20212;-73
2021/04/18 03:46:07;;;;;;;;;;;;;;;7.11;83.98;101214.53;1745957;81;20264;-73
2021/04/18 03:48:33;;;;;;;;;;;;;;;7.13;84.05;101210.27;1755182;80;21943;-73
2021/04/18 03:50:59;;;;;;;;;;;;;;;7.13;84.06;101213.70;1744833;81;20189;-73
2021/04/18 03:53:37;;;;;;;;;;;;;;;7.14;84.09;101211.98;1749672;81;20205;-73
2021/04/18 03:56:04;;;;;;;;;;;;;;;7.15;84.06;101222.28;1742678;80;20450;-73
2021/04/18 03:58:30;;;;;;;;;;;;;;;7.17;84.12;101228.73;1753129;80;20273;-73
2021/04/18 04:00:56;;;;;;;;;;;;;;;7.19;84.11;101233.45;1751840;81;20260;-73
2021/04/18 04:03:22;;;;;;;;;;;;;;;7.19;84.09;101228.31;1748194;81;20800;-73
2021/04/18 04:05:48;;;;;;;;;;;;;;;7.20;84.07;101240.33;1746920;81;20240;-73
2021/04/18 04:08:14;;;;;;;;;;;;;;;7.18;83.99;101239.03;1737341;80;20264;-73
2021/04/18 04:10:40;;;;;;;;;;;;;;;7.17;84.11;101233.45;1742204;81;20280;-73
2021/04/18 04:13:06;;;;;;;;;;;;;;;7.20;84.12;101241.61;1752662;81;20208;-73
2021/04/18 04:15:32;;;;;;;;;;;;;;;7.22;84.15;101245.06;1747423;81;20208;-73
2021/04/18 04:17:58;;;;;;;;;;;;;;;7.22;84.13;101243.34;1754052;81;20227;-73
2021/04/18 04:20:24;;;;;;;;;;;;;;;7.21;84.09;101241.62;1745530;81;20277;-73
2021/04/18 04:22:50;;;;;;;;;;;;;;;7.23;84.15;101236.49;1742120;81;20207;-73
2021/04/18 04:25:16;;;;;;;;;;;;;;;7.25;84.14;101243.37;1744519;80;20272;-73
2021/04/18 04:27:42;;;;;;;;;;;;;;;7.25;84.15;101239.52;1737865;81;20835;-73
2021/04/18 04:30:10;;;;;;;;;;;;;;;7.28;84.21;101235.64;1758244;80;20212;-73
2021/04/18 04:32:37;;;;;;;;;;;;;;;7.31;84.20;101232.23;1754882;80;20248;-73
2021/04/18 04:35:05;;;;;;;;;;;;;;;7.33;84.19;101230.96;1734453;80;36135;-73
2021/04/18 04:37:31;;;;;;;;;;;;;;;7.35;84.17;101230.55;1744276;81;20252;-74
2021/04/18 04:40:00;;;;;;;;;;;;;;;7.36;84.19;101230.98;1743417;80;20280;-74
2021/04/18 04:42:25;;;;;;;;;;;;;;;7.39;84.19;101229.72;1752565;81;20204;-73
2021/04/18 04:44:51;;;;;;;;;;;;;;;7.39;84.17;101228.00;1757535;81;20278;-73
2021/04/18 04:47:18;;;;;;;;;;;;;;;7.41;84.19;101236.59;1756431;80;20303;-73
2021/04/18 04:49:44;;;;;;;;;;;;;;;7.42;84.24;101234.88;1754706;81;20334;-73
2021/04/18 04:52:10;;;;;;;;;;;;;;;7.44;84.19;101235.75;1743368;81;20468;-73
2021/04/18 04:54:40;;;;;;;;;;;;;;;7.45;84.18;101241.34;1751437;81;20268;-73
2021/04/18 04:57:06;;;;;;;;;;;;;;;7.46;84.24;101239.20;1740227;81;20260;-73
2021/04/18 04:59:32;;;;;;;;;;;;;;;7.46;84.16;101240.48;1743083;80;20259;-73
2021/04/18 05:01:58;;;;;;;;;;;;;;;7.48;84.23;101237.50;1753499;80;20252;-73
2021/04/18 05:04:25;;;;;;;;;;;;;;;7.49;84.22;101242.66;1766303;80;20253;-73
2021/04/18 05:06:52;;;;;;;;;;;;;;;7.52;84.26;101237.95;1737484;80;20256;-74
2021/04/18 05:09:18;;;;;;;;;;;;;;;7.62;84.42;101241.02;1741440;81;20272;-74
2021/04/18 05:11:44;;;;;;;;;;;;;;;7.76;84.48;101244.97;1748127;80;20236;-74
2021/04/18 05:14:10;;;;;;;;;;;;;;;7.86;84.45;101242.42;1753651;80;20259;-73
2021/04/18 05:16:36;;;;;;;;;;;;;;;8.01;84.51;101248.08;1746751;80;20367;-74
2021/04/18 05:19:02;;;;;;;;;;;;;;;8.13;84.53;101243.41;1757186;80;20255;-73
2021/04/18 05:21:28;;;;;;;;;;;;;;;8.28;84.63;101239.60;1755225;80;20728;-73
2021/04/18 05:23:54;;;;;;;;;;;;;;;8.40;84.36;101242.22;1753013;80;20301;-73
2021/04/18 05:26:21;;;;;;;;;;;;;;;8.46;84.35;101242.67;1734611;80;20252;-74
2021/04/18 05:28:47;;;;;;;;;;;;;;;8.49;84.21;101249.12;1757719;80;20256;-73
2021/04/18 05:31:13;;;;;;;;;;;;;;;8.49;84.08;101245.25;1761090;80;20247;-73
2021/04/18 05:33:39;;;;;;;;;;;;;;;8.49;84.14;101240.95;1725366;81;20280;-74
2021/04/18 05:36:06;;;;;;;;;;;;;;;8.49;84.20;101240.95;1745586;80;20247;-73
2021/04/18 05:38:32;;;;;;;;;;;;;;;8.53;84.13;101244.41;1755023;80;20264;-73
2021/04/18 05:40:58;;;;;;;;;;;;;;;8.53;84.21;101247.84;1751626;80;20268;-74
2021/04/18 05:43:27;;;;;;;;;;;;;;;8.56;84.24;101247.85;1746743;80;20279;-74
2021/04/18 05:45:54;;;;;;;;;;;;;;;8.58;84.25;101245.28;1758451;80;20272;-73
2021/04/18 05:48:20;;;;;;;;;;;;;;;8.62;84.28;101254.73;1752321;80;20282;-73
2021/04/18 05:50:46;;;;;;;;;;;;;;;8.59;84.19;101254.30;1755373;80;20288;-73
2021/04/18 05:53:12;;;;;;;;;;;;;;;8.61;84.34;101256.45;1759643;80;20471;-73
2021/04/18 05:55:39;;;;;;;;;;;;;;;8.65;84.35;101257.75;1756242;80;20276;-73
2021/04/18 05:58:11;;;;;;;;;;;;;;;8.65;84.25;101257.33;1752794;80;20264;-73
2021/04/18 06:00:37;;;;;;;;;;;;;;;8.63;84.21;101253.45;1760620;80;20254;-74
2021/04/18 06:03:04;;;;;;;;;;;;;;;8.62;84.21;101255.60;1753008;80;20295;-73
2021/04/18 06:05:33;;;;;;;;;;;;;;;8.66;84.30;101253.03;1746963;80;20271;-73
2021/04/18 06:07:59;;;;;;;;;;;;;;;8.67;84.24;101256.04;1747521;80;20338;-73
2021/04/18 06:10:25;;;;;;;;;;;;;;;8.68;84.32;101253.89;1746758;80;20210;-73
2021/04/18 06:12:52;;;;;;;;;;;;;;;8.70;84.28;101256.05;1758717;80;20284;-73
2021/04/18 06:15:18;;;;;;;;;;;;;;;8.72;84.33;101253.05;1753521;80;20275;-73
2021/04/18 06:17:44;;;;;;;;;;;;;;;8.74;84.24;101247.46;1757530;80;20266;-73
2021/04/18 06:20:14;;;;;;;;;;;;;;;8.74;84.33;101246.17;1756300;80;20272;-74
2021/04/18 06:22:40;;;;;;;;;;;;;;;8.80;84.47;101250.91;1755268;80;20260;-73
2021/04/18 06:25:07;;;;;;;;;;;;;;;8.84;84.39;101253.89;1753020;80;20268;-74
2021/04/18 06:27:33;;;;;;;;;;;;;;;8.83;84.29;101255.21;1759877;80;20280;-74
2021/04/18 06:29:59;;;;;;;;;;;;;;;8.83;84.25;101259.94;1719912;81;20282;-73
2021/04/18 06:32:26;;;;;;;;;;;;;;;8.83;84.30;101250.91;1720809;81;20298;-74
2021/04/18 06:34:52;;;;;;;;;;;;;;;8.82;84.12;101254.78;1719686;81;20204;-75
2021/04/18 06:37:18;;;;;;;;;;;;;;;8.79;84.15;101251.77;1731063;81;20303;-75
2021/04/18 06:39:44;;;;;;;;;;;;;;;8.80;84.31;101253.48;1732720;81;20263;-75
2021/04/18 06:42:14;;;;;;;;;;;;;;;8.84;84.40;101254.32;1710973;82;20272;-74
2021/04/18 06:44:40;;;;;;;;;;;;;;;8.89;84.44;101255.19;1729991;81;20571;-74
2021/04/18 06:47:12;;;;;;;;;;;;;;;8.92;84.30;101261.21;1728817;81;20167;-74
2021/04/18 06:49:38;;;;;;;;;;;;;;;8.93;84.38;101253.91;1716454;81;20261;-74
2021/04/18 06:52:07;;;;;;;;;;;;;;;8.93;84.27;101254.34;1727389;81;20167;-74
2021/04/18 06:54:34;;;;;;;;;;;;;;;8.94;84.34;101262.08;1739935;81;20270;-74
2021/04/18 06:57:01;;;;;;;;;;;;;;;8.97;84.35;101265.09;1721984;81;20260;-74
2021/04/18 06:59:28;;;;;;;;;;;;;;;8.99;84.33;101267.67;1717838;81;20498;-74
2021/04/18 07:01:54;;;;;;;;;;;;;;;9.04;84.45;101267.24;1722899;81;20264;-74
2021/04/18 07:04:22;;;;;;;;;;;;;;;9.10;84.40;101265.95;1726906;81;20704;-74
2021/04/18 07:06:54;;;;;;;;;;;;;;;9.13;84.31;101265.96;1724055;81;20281;-74
2021/04/18 07:09:22;;;;;;;;;;;;;;;9.16;84.30;101269.83;1728054;81;20324;-74
2021/04/18 07:11:55;;;;;;;;;;;;;;;9.25;84.40;101271.98;1724936;81;20194;-76
2021/04/18 07:14:27;;;;;;;;;;;;;;;9.30;84.19;101266.83;1734913;81;20282;-76
2021/04/18 07:16:56;;;;;;;;;;;;;;;9.35;84.20;101271.98;1718633;81;20527;-76
2021/04/18 07:19:24;;;;;;;;;;;;;;;9.38;84.14;101272.81;1688616;83;20185;-76
2021/04/18 07:21:52;;;;;;;;;;;;;;;9.39;84.06;101277.55;1686697;83;20261;-76
2021/04/18 07:24:19;;;;;;;;;;;;;;;9.38;83.97;101277.11;1687472;83;20274;-76
2021/04/18 07:27:03;;;;;;;;;;;;;;;9.42;84.12;101274.96;1696087;83;20516;-76
2021/04/18 07:29:33;;;;;;;;;;;;;;;9.52;84.21;101273.66;1710937;81;20291;-76
2021/04/18 07:31:59;;;;;;;;;;;;;;;9.64;84.13;101284.41;1710765;82;20170;-76
2021/04/18 07:34:29;;;;;;;;;;;;;;;9.68;83.98;101288.70;1712370;83;20254;-76
2021/04/18 07:37:10;;;;;;;;;;;;;;;9.75;84.14;101281.37;1714428;82;20272;-76
2021/04/18 07:39:54;;;;;;;;;;;;;;;9.86;84.10;101286.09;1708437;82;20275;-76
2021/04/18 07:42:27;;;;;;;;;;;;;;;9.96;84.13;101285.61;1712835;81;20268;-76
2021/04/18 07:44:58;;;;;;;;;;;;;;;10.09;84.08;101283.84;1721393;82;20499;-76
2021/04/18 07:47:25;;;;;;;;;;;;;;;10.23;84.12;101289.43;1710570;82;20256;-76
2021/04/18 07:49:55;;;;;;;;;;;;;;;10.42;84.16;101295.36;1720465;83;20163;-76
2021/04/18 07:52:25;;;;;;;;;;;;;;;10.55;83.85;101283.23;1717893;83;20653;-76
2021/04/18 07:54:52;;;;;;;;;;;;;;;10.74;83.84;101282.70;1699574;83;20664;-76
2021/04/18 07:57:19;;;;;;;;;;;;;;;10.90;83.90;101289.06;1729925;81;20195;-76
2021/04/18 07:59:46;;;;;;;;;;;;;;;11.01;83.40;101288.10;1730134;81;20250;-76
2021/04/18 08:02:17;;;;;;;;;;;;;;;10.97;83.22;101282.09;1733524;81;20263;-76
2021/04/18 08:04:43;;;;;;;;;;;;;;;10.92;83.19;101289.88;1723841;81;20256;-76
2021/04/18 08:07:12;;;;;;;;;;;;;;;10.90;83.21;101288.20;1704890;82;20166;-73
2021/04/18 08:09:38;;;;;;;;;;;;;;;10.93;83.42;101292.03;1720182;81;20274;-74
2021/04/18 08:12:13;;;;;;;;;;;;;;;10.96;83.40;101286.84;1722415;81;20181;-74
2021/04/18 08:14:42;;;;;;;;;;;;;;;10.94;83.15;101292.02;1714855;82;20260;-74
2021/04/18 08:17:16;;;;;;;;;;;;;;;10.99;83.33;101290.70;1751964;80;20308;-74
2021/04/18 08:19:58;;;;;;;;;;;;;;;11.09;83.34;101291.06;1755531;80;20189;-74
2021/04/18 08:22:25;;;;;;;;;;;;;;;11.17;83.34;101297.05;1760387;80;20158;-75
2021/04/18 08:25:06;;;;;;;;;;;;;;;11.30;83.25;101288.75;1740105;80;20263;-74
2021/04/18 08:27:35;;;;;;;;;;;;;;;11.36;83.04;101286.55;1727146;80;20285;-74
2021/04/18 08:30:04;;;;;;;;;;;;;;;11.45;83.23;101282.55;1744866;80;20266;-74
2021/04/18 08:32:51;;;;;;;;;;;;;;;11.54;82.88;101285.06;1760956;80;20156;-74
2021/04/18 08:35:19;;;;;;;;;;;;;;;11.62;83.01;101285.84;1754348;80;20256;-74
2021/04/18 08:37:47;;;;;;;;;;;;;;;11.81;82.92;101288.72;1756571;80;20248;-74
2021/04/18 08:40:14;;;;;;;;;;;;;;;11.90;82.91;101287.77;1751321;80;20269;-74
2021/04/18 08:42:41;;;;;;;;;;;;;;;12.00;83.05;101289.34;1753014;80;20264;-73
2021/04/18 08:45:07;;;;;;;;;;;;;;;12.22;83.01;101285.64;1754327;80;20500;-75
2021/04/18 08:47:35;;;;;;;;;;;;;;;12.71;82.49;101287.58;1757456;80;20175;-74
2021/04/18 08:50:08;;;;;;;;;;;;;;;12.92;82.49;101283.81;1756212;81;20523;-74
2021/04/18 08:52:36;;;;;;;;;;;;;;;13.04;82.29;101283.59;1758351;80;20271;-74
2021/04/18 08:55:05;;;;;;;;;;;;;;;13.35;82.42;101278.81;1753774;80;20570;-74
2021/04/18 08:57:34;;;;;;;;;;;;;;;13.78;82.21;101269.78;1756481;80;20461;-74
2021/04/18 09:00:03;;;;;;;;;;;;;;;14.30;82.21;101280.44;1721057;82;20259;-74
2021/04/18 09:02:29;;;;;;;;;;;;;;;14.49;81.75;101277.91;1712267;82;20277;-76
2021/04/18 09:04:58;;;;;;;;;;;;;;;14.66;81.85;101274.91;1707532;82;20250;-76
2021/04/18 09:07:29;;;;;;;;;;;;;;;14.80;82.08;101272.84;1709477;83;20187;-76
2021/04/18 09:09:59;;;;;;;;;;;;;;;14.51;81.71;101272.22;1709369;82;20270;-76
2021/04/18 09:12:26;;;;;;;;;;;;;;;14.17;82.07;101273.33;1702808;82;20159;-76
2021/04/18 09:14:52;;;;;;;;;;;;;;;13.93;82.17;101275.59;1708111;82;20252;-76
2021/04/18 09:17:26;;;;;;;;;;;;;;;13.74;82.25;101273.33;1709059;83;20431;-76
2021/04/18 09:20:05;;;;;;;;;;;;;;;13.62;82.21;101270.95;1670194;83;20189;-76
2021/04/18 09:22:32;;;;;;;;;;;;;;;13.45;82.08;101267.37;1709707;82;20187;-76
2021/04/18 09:25:13;;;;;;;;;;;;;;;13.40;82.43;101278.29;1708673;82;20519;-76
2021/04/18 09:27:46;;;;;;;;;;;;;;;13.35;82.13;101281.41;1717412;82;20184;-76
2021/04/18 09:30:24;;;;;;;;;;;;;;;13.27;82.08;101279.38;1708772;83;20575;-76
2021/04/18 09:32:52;;;;;;;;;;;;;;;13.29;82.21;101276.75;1723956;82;20184;-76
2021/04/18 09:35:22;;;;;;;;;;;;;;;13.27;82.04;101272.88;1725125;82;20159;-75
2021/04/18 09:37:59;;;;;;;;;;;;;;;13.17;81.66;101276.51;1734966;81;20142;-75
2021/04/18 09:40:28;;;;;;;;;;;;;;;13.12;81.96;101273.95;1763995;80;20148;-75
2021/04/18 09:42:54;;;;;;;;;;;;;;;13.13;81.79;101271.77;1763062;80;20169;-75
2021/04/18 09:45:23;;;;;;;;;;;;;;;13.23;82.13;101280.30;1764561;80;20248;-76
2021/04/18 09:48:18;;;;;;;;;;;;;;;13.31;81.74;101281.04;1761010;80;20185;-75
2021/04/18 09:50:46;;;;;;;;;;;;;;;13.40;81.81;101286.53;1764846;80;20256;-76
2021/04/18 09:53:25;;;;;;;;;;;;;;;13.44;81.36;101289.48;1731541;81;20521;-76
2021/04/18 09:56:05;;;;;;;;;;;;;;;13.37;81.21;101282.68;1757644;80;20530;-77
2021/04/18 09:58:37;;;;;;;;;;;;;;;13.29;81.23;101273.72;1751073;80;20590;-77
2021/04/18 10:01:04;;;;;;;;;;;;;;;13.19;81.09;101277.34;1761144;80;20165;-77
2021/04/18 10:03:39;;;;;;;;;;;;;;;13.08;80.95;101287.86;1750317;80;20153;-77
2021/04/18 10:06:05;;;;;;;;;;;;;;;12.98;80.78;101290.22;1739836;81;20533;-77
2021/04/18 10:08:34;;;;;;;;;;;;;;;12.85;80.95;101279.16;1754587;80;20567;-77
2021/04/18 10:11:09;;;;;;;;;;;;;;;12.85;81.07;101293.87;1739706;81;20548;-77
2021/04/18 10:13:57;;;;;;;;;;;;;;;12.80;80.74;101290.48;1739375;80;541092;-77
2021/04/18 10:16:36;;;;;;;;;;;;;;;12.76;80.90;101286.21;1751144;81;20429;-77
2021/04/18 10:19:08;;;;;;;;;;;;;;;12.75;80.90;101281.91;1759367;80;20452;-77
2021/04/18 10:21:35;;;;;;;;;;;;;;;12.79;80.91;101284.87;1744209;81;20165;-77
2021/04/18 10:24:01;;;;;;;;;;;;;;;12.76;80.76;101283.61;1744125;80;20191;-77
2021/04/18 10:26:28;;;;;;;;;;;;;;;12.79;80.82;101279.68;1743131;81;20516;-77
2021/04/18 10:28:55;;;;;;;;;;;;;;;12.86;80.74;101285.20;1745929;80;20147;-77
2021/04/18 10:31:24;;;;;;;;;;;;;;;12.89;80.67;101280.83;1748680;80;20449;-77
2021/04/18 10:33:50;;;;;;;;;;;;;;;12.88;80.57;101286.89;1745960;80;20448;-78
2021/04/18 10:36:16;;;;;;;;;;;;;;;12.83;80.41;101278.76;1737830;81;20437;-78
2021/04/18 10:38:43;;;;;;;;;;;;;;;12.82;80.64;101280.94;1753728;81;20466;-78
2021/04/18 10:41:10;;;;;;;;;;;;;;;12.86;80.52;101281.31;1749349;81;20473;-78
2021/04/18 10:43:36;;;;;;;;;;;;;;;12.91;80.48;101282.95;1744543;80;20531;-78
2021/04/18 10:46:04;;;;;;;;;;;;;;;12.99;80.59;101286.73;1750037;80;20521;-78
2021/04/18 10:48:30;;;;;;;;;;;;;;;13.00;80.31;101278.03;1745887;80;20452;-78
2021/04/18 10:50:56;;;;;;;;;;;;;;;13.05;80.33;101280.13;1744584;81;20521;-78
2021/04/18 10:53:26;;;;;;;;;;;;;;;13.07;80.33;101282.25;1742058;80;20544;-78
2021/04/18 10:55:52;;;;;;;;;;;;;;;13.18;80.30;101280.38;1750422;80;20563;-78
2021/04/18 10:58:18;;;;;;;;;;;;;;;13.24;80.23;101281.58;1747385;81;20536;-78
2021/04/18 11:00:44;;;;;;;;;;;;;;;13.18;79.94;101282.98;1751107;80;20545;-78
2021/04/18 11:03:10;;;;;;;;;;;;;;;13.10;79.86;101292.59;1753355;81;20276;-78
2021/04/18 11:05:36;;;;;;;;;;;;;;;13.03;79.91;101287.08;1730127;81;982177;-78
2021/04/18 11:08:03;;;;;;;;;;;;;;;13.05;80.03;101289.65;1751648;80;20203;-78
2021/04/18 11:10:29;;;;;;;;;;;;;;;13.06;79.94;101287.03;1741409;80;20896;-78
2021/04/18 11:13:01;;;;;;;;;;;;;;;13.04;79.92;101291.39;1742249;80;20429;-78
2021/04/18 11:15:27;;;;;;;;;;;;;;;12.99;79.81;101283.28;1750141;80;20542;-78
2021/04/18 11:17:53;;;;;;;;;;;;;;;12.87;79.57;101279.98;1745746;80;20421;-78
2021/04/18 11:20:20;;;;;;;;;;;;;;;12.86;79.92;101285.20;1747499;80;20559;-78
2021/04/18 11:22:46;;;;;;;;;;;;;;;12.84;79.71;101283.06;1745225;80;20496;-78
2021/04/18 11:25:13;;;;;;;;;;;;;;;12.81;79.65;101281.37;1747579;80;20181;-78
2021/04/18 11:27:39;;;;;;;;;;;;;;;12.87;79.70;101284.32;1754851;80;20172;-77
2021/04/18 11:30:08;;;;;;;;;;;;;;;12.90;79.52;101282.54;1746826;80;20539;-77
2021/04/18 11:32:35;;;;;;;;;;;;;;;12.89;79.35;101279.97;1737047;80;20505;-77
2021/04/18 11:35:01;;;;;;;;;;;;;;;12.83;79.36;101279.62;1739191;80;20536;-77
2021/04/18 11:37:27;;;;;;;;;;;;;;;12.88;79.41;101279.55;1744099;80;20365;-77
2021/04/18 11:39:54;;;;;;;;;;;;;;;12.88;79.25;101276.95;1738753;80;20487;-77
2021/04/18 11:42:20;;;;;;;;;;;;;;;12.90;79.19;101284.28;1750438;80;20485;-77
2021/04/18 11:44:46;;;;;;;;;;;;;;;12.84;78.90;101283.92;1748944;80;20188;-77
2021/04/18 11:47:12;;;;;;;;;;;;;;;12.85;79.24;101288.67;1731919;81;20461;-77
2021/04/18 11:49:39;;;;;;;;;;;;;;;12.89;79.16;101286.45;1747231;80;20437;-77
2021/04/18 11:52:05;;;;;;;;;;;;;;;12.94;79.01;101289.84;1741475;80;20212;-77
2021/04/18 11:54:31;;;;;;;;;;;;;;;13.02;79.15;101280.61;1741879;80;20529;-77
2021/04/18 11:56:57;;;;;;;;;;;;;;;13.08;78.94;101280.08;1737457;80;20464;-77
2021/04/18 11:59:23;;;;;;;;;;;;;;;13.13;78.95;101274.81;1745486;80;20266;-74
2021/04/18 12:01:50;;;;;;;;;;;;;;;13.16;78.90;101273.05;1756251;80;20880;-75
2021/04/18 12:04:16;;;;;;;;;;;;;;;13.21;78.80;101278.17;1757560;80;20743;-75
2021/04/18 12:06:42;;;;;;;;;;;;;;;13.25;78.80;101273.34;1760378;80;20854;-75
2021/04/18 12:09:08;;;;;;;;;;;;;;;13.38;78.99;101276.16;1750354;80;20738;-74
2021/04/18 12:11:34;;;;;;;;;;;;;;;13.50;78.77;101277.69;1755067;80;20178;-75
2021/04/18 12:14:00;;;;;;;;;;;;;;;13.54;78.51;101280.18;1765584;80;20255;-74
2021/04/18 12:16:26;;;;;;;;;;;;;;;13.57;78.44;101275.38;1727339;81;20451;-74
2021/04/18 12:18:53;;;;;;;;;;;;;;;13.60;78.40;101270.13;1767760;80;20578;-74
2021/04/18 12:21:20;;;;;;;;;;;;;;;13.62;78.56;101280.05;1745632;80;20279;-74
2021/04/18 12:23:48;;;;;;;;;;;;;;;13.68;78.47;101279.94;1746223;80;20411;-74
2021/04/18 12:26:15;;;;;;;;;;;;;;;13.64;78.06;101274.82;1756744;80;21043;-74
2021/04/18 12:28:41;;;;;;;;;;;;;;;13.57;78.12;101277.97;1754586;80;20295;-74
2021/04/18 12:31:10;;;;;;;;;;;;;;;13.48;78.02;101280.76;1746250;80;20300;-74
2021/04/18 12:33:37;;;;;;;;;;;;;;;13.39;77.96;101271.83;1745465;80;20743;-75
2021/04/18 12:36:05;;;;;;;;;;;;;;;13.32;78.06;101276.70;1752916;80;20272;-75
2021/04/18 12:38:31;;;;;;;;;;;;;;;13.24;78.08;101275.53;1753975;80;20543;-75
2021/04/18 12:40:58;;;;;;;;;;;;;;;13.21;78.07;101275.58;1752298;80;20519;-74
2021/04/18 12:43:25;;;;;;;;;;;;;;;13.16;77.96;101273.05;1754760;80;20560;-74
2021/04/18 12:45:51;;;;;;;;;;;;;;;13.09;77.98;101275.30;1756889;80;20536;-74